sensor_id;sensor_type;location;lat;lon;timestamp;P1;durP1;ratioP1;P2;durP2;ratioP2
45236;SDS011;30973;51.442;3.580;2024-03-06T00:00:40;10.43;;;8.88;;
45236;SDS011;30973;51.442;3.580;2024-03-06T00:03:07;12.95;;;9.25;;
45236;SDS011;30973;51.442;3.580;2024-03-06T00:05:35;13.07;;;9.23;;
45236;SDS011;30973;51.442;3.580;2024-03-06T00:08:02;10.40;;;9.10;;
45236;SDS011;30973;51.442;3.580;2024-03-06T00:10:30;11.13;;;8.70;;
45236;SDS011;30973;51.442;3.580;2024-03-06T00:12:58;10.60;;;9.23;;
45236;SDS011;30973;51.442;3.580;2024-03-06T00:15:26;9.98;;;8.77;;
45236;SDS011;30973;51.442;3.580;2024-03-06T00:17:54;10.98;;;9.40;;
45236;SDS011;30973;51.442;3.580;2024-03-06T00:20:21;9.68;;;8.65;;
45236;SDS011;30973;51.442;3.580;2024-03-06T00:22:49;10.43;;;8.80;;
45236;SDS011;30973;51.442;3.580;2024-03-06T00:25:16;9.38;;;8.32;;
45236;SDS011;30973;51.442;3.580;2024-03-06T00:27:44;10.23;;;9.07;;
45236;SDS011;30973;51.442;3.580;2024-03-06T00:30:11;12.00;;;9.98;;
45236;SDS011;30973;51.442;3.580;2024-03-06T00:32:39;13.57;;;9.85;;
45236;SDS011;30973;51.442;3.580;2024-03-06T00:35:06;13.15;;;10.10;;
45236;SDS011;30973;51.442;3.580;2024-03-06T00:37:34;12.93;;;10.48;;
45236;SDS011;30973;51.442;3.580;2024-03-06T00:40:01;10.68;;;9.13;;
45236;SDS011;30973;51.442;3.580;2024-03-06T00:42:30;11.55;;;9.90;;
45236;SDS011;30973;51.442;3.580;2024-03-06T00:44:57;12.50;;;9.88;;
45236;SDS011;30973;51.442;3.580;2024-03-06T00:47:24;11.98;;;9.73;;
45236;SDS011;30973;51.442;3.580;2024-03-06T00:49:52;12.95;;;10.15;;
45236;SDS011;30973;51.442;3.580;2024-03-06T00:52:19;11.13;;;9.63;;
45236;SDS011;30973;51.442;3.580;2024-03-06T00:54:47;12.38;;;10.10;;
45236;SDS011;30973;51.442;3.580;2024-03-06T00:57:14;12.75;;;10.45;;
45236;SDS011;30973;51.442;3.580;2024-03-06T00:59:41;14.02;;;10.88;;
45236;SDS011;30973;51.442;3.580;2024-03-06T01:02:09;13.40;;;10.75;;
45236;SDS011;30973;51.442;3.580;2024-03-06T01:04:36;12.35;;;10.20;;
45236;SDS011;30973;51.442;3.580;2024-03-06T01:07:04;10.88;;;9.70;;
45236;SDS011;30973;51.442;3.580;2024-03-06T01:09:31;13.10;;;10.70;;
45236;SDS011;30973;51.442;3.580;2024-03-06T01:11:59;16.25;;;11.45;;
45236;SDS011;30973;51.442;3.580;2024-03-06T01:14:26;15.10;;;10.07;;
45236;SDS011;30973;51.442;3.580;2024-03-06T01:16:53;14.77;;;11.43;;
45236;SDS011;30973;51.442;3.580;2024-03-06T01:19:22;13.15;;;10.63;;
45236;SDS011;30973;51.442;3.580;2024-03-06T01:21:50;15.07;;;11.00;;
45236;SDS011;30973;51.442;3.580;2024-03-06T01:24:17;12.48;;;11.00;;
45236;SDS011;30973;51.442;3.580;2024-03-06T01:26:45;12.88;;;10.65;;
45236;SDS011;30973;51.442;3.580;2024-03-06T01:29:12;15.02;;;11.20;;
45236;SDS011;30973;51.442;3.580;2024-03-06T01:31:39;13.95;;;11.40;;
45236;SDS011;30973;51.442;3.580;2024-03-06T01:34:07;13.45;;;11.25;;
45236;SDS011;30973;51.442;3.580;2024-03-06T01:36:35;17.27;;;12.52;;
45236;SDS011;30973;51.442;3.580;2024-03-06T01:39:02;13.85;;;11.68;;
45236;SDS011;30973;51.442;3.580;2024-03-06T01:41:30;14.50;;;11.35;;
45236;SDS011;30973;51.442;3.580;2024-03-06T01:43:57;14.60;;;11.13;;
45236;SDS011;30973;51.442;3.580;2024-03-06T01:46:25;16.08;;;12.27;;
45236;SDS011;30973;51.442;3.580;2024-03-06T01:48:52;14.80;;;12.90;;
45236;SDS011;30973;51.442;3.580;2024-03-06T01:51:20;17.70;;;13.23;;
45236;SDS011;30973;51.442;3.580;2024-03-06T01:53:47;16.67;;;12.43;;
45236;SDS011;30973;51.442;3.580;2024-03-06T01:56:15;15.93;;;12.73;;
45236;SDS011;30973;51.442;3.580;2024-03-06T01:58:47;16.67;;;13.95;;
45236;SDS011;30973;51.442;3.580;2024-03-06T02:01:16;16.58;;;12.65;;
45236;SDS011;30973;51.442;3.580;2024-03-06T02:03:44;15.10;;;12.23;;
45236;SDS011;30973;51.442;3.580;2024-03-06T02:06:12;15.95;;;13.27;;
45236;SDS011;30973;51.442;3.580;2024-03-06T02:08:41;13.98;;;12.43;;
45236;SDS011;30973;51.442;3.580;2024-03-06T02:11:08;14.82;;;12.50;;
45236;SDS011;30973;51.442;3.580;2024-03-06T02:13:36;16.30;;;12.98;;
45236;SDS011;30973;51.442;3.580;2024-03-06T02:16:04;15.00;;;12.40;;
45236;SDS011;30973;51.442;3.580;2024-03-06T02:18:32;16.20;;;12.95;;
45236;SDS011;30973;51.442;3.580;2024-03-06T02:20:59;15.60;;;13.52;;
45236;SDS011;30973;51.442;3.580;2024-03-06T02:23:26;16.67;;;12.48;;
45236;SDS011;30973;51.442;3.580;2024-03-06T02:25:54;14.73;;;12.60;;
45236;SDS011;30973;51.442;3.580;2024-03-06T02:28:21;14.30;;;12.07;;
45236;SDS011;30973;51.442;3.580;2024-03-06T02:30:52;14.70;;;12.52;;
45236;SDS011;30973;51.442;3.580;2024-03-06T02:33:19;15.52;;;13.00;;
45236;SDS011;30973;51.442;3.580;2024-03-06T02:35:47;14.57;;;12.27;;
45236;SDS011;30973;51.442;3.580;2024-03-06T02:38:14;15.80;;;12.43;;
45236;SDS011;30973;51.442;3.580;2024-03-06T02:40:43;16.38;;;13.20;;
45236;SDS011;30973;51.442;3.580;2024-03-06T02:43:11;19.35;;;14.68;;
45236;SDS011;30973;51.442;3.580;2024-03-06T02:45:39;15.35;;;13.52;;
45236;SDS011;30973;51.442;3.580;2024-03-06T02:48:06;15.77;;;13.77;;
45236;SDS011;30973;51.442;3.580;2024-03-06T02:50:34;16.33;;;13.85;;
45236;SDS011;30973;51.442;3.580;2024-03-06T02:53:01;15.13;;;12.93;;
45236;SDS011;30973;51.442;3.580;2024-03-06T02:55:29;15.35;;;12.85;;
45236;SDS011;30973;51.442;3.580;2024-03-06T02:57:56;17.55;;;13.73;;
45236;SDS011;30973;51.442;3.580;2024-03-06T03:00:24;16.08;;;13.35;;
45236;SDS011;30973;51.442;3.580;2024-03-06T03:02:52;14.57;;;12.30;;
45236;SDS011;30973;51.442;3.580;2024-03-06T03:05:19;16.38;;;12.82;;
45236;SDS011;30973;51.442;3.580;2024-03-06T03:07:46;14.55;;;12.32;;
45236;SDS011;30973;51.442;3.580;2024-03-06T03:10:14;16.40;;;11.93;;
45236;SDS011;30973;51.442;3.580;2024-03-06T03:12:42;15.00;;;12.27;;
45236;SDS011;30973;51.442;3.580;2024-03-06T03:15:09;15.65;;;12.80;;
45236;SDS011;30973;51.442;3.580;2024-03-06T03:17:37;16.38;;;12.52;;
45236;SDS011;30973;51.442;3.580;2024-03-06T03:20:04;14.75;;;12.68;;
45236;SDS011;30973;51.442;3.580;2024-03-06T03:22:37;15.05;;;12.02;;
45236;SDS011;30973;51.442;3.580;2024-03-06T03:25:08;15.48;;;13.05;;
45236;SDS011;30973;51.442;3.580;2024-03-06T03:27:36;16.60;;;12.73;;
45236;SDS011;30973;51.442;3.580;2024-03-06T03:30:05;16.42;;;13.23;;
45236;SDS011;30973;51.442;3.580;2024-03-06T03:32:35;16.45;;;13.63;;
45236;SDS011;30973;51.442;3.580;2024-03-06T03:35:04;18.13;;;13.35;;
45236;SDS011;30973;51.442;3.580;2024-03-06T03:37:32;17.85;;;14.00;;
45236;SDS011;30973;51.442;3.580;2024-03-06T03:39:59;16.50;;;13.55;;
45236;SDS011;30973;51.442;3.580;2024-03-06T03:42:27;17.35;;;14.43;;
45236;SDS011;30973;51.442;3.580;2024-03-06T03:44:54;19.35;;;15.15;;
45236;SDS011;30973;51.442;3.580;2024-03-06T03:47:22;18.73;;;14.25;;
45236;SDS011;30973;51.442;3.580;2024-03-06T03:49:49;17.02;;;13.82;;
45236;SDS011;30973;51.442;3.580;2024-03-06T03:55:02;16.48;;;13.70;;
45236;SDS011;30973;51.442;3.580;2024-03-06T03:57:30;18.63;;;14.10;;
45236;SDS011;30973;51.442;3.580;2024-03-06T03:59:57;19.42;;;14.63;;
45236;SDS011;30973;51.442;3.580;2024-03-06T04:02:25;16.67;;;13.65;;
45236;SDS011;30973;51.442;3.580;2024-03-06T04:04:52;17.90;;;14.38;;
45236;SDS011;30973;51.442;3.580;2024-03-06T04:07:20;16.67;;;13.32;;
45236;SDS011;30973;51.442;3.580;2024-03-06T04:09:47;19.77;;;14.65;;
45236;SDS011;30973;51.442;3.580;2024-03-06T04:12:15;18.67;;;13.95;;
45236;SDS011;30973;51.442;3.580;2024-03-06T04:14:43;16.98;;;14.23;;
45236;SDS011;30973;51.442;3.580;2024-03-06T04:17:11;20.88;;;14.95;;
45236;SDS011;30973;51.442;3.580;2024-03-06T04:19:39;19.05;;;14.57;;
45236;SDS011;30973;51.442;3.580;2024-03-06T04:22:06;18.70;;;14.48;;
45236;SDS011;30973;51.442;3.580;2024-03-06T04:24:34;18.45;;;14.70;;
45236;SDS011;30973;51.442;3.580;2024-03-06T04:27:01;17.85;;;14.40;;
45236;SDS011;30973;51.442;3.580;2024-03-06T04:29:29;18.63;;;14.73;;
45236;SDS011;30973;51.442;3.580;2024-03-06T04:31:56;21.83;;;14.68;;
45236;SDS011;30973;51.442;3.580;2024-03-06T04:34:25;19.90;;;14.50;;
45236;SDS011;30973;51.442;3.580;2024-03-06T04:36:52;17.63;;;14.13;;
45236;SDS011;30973;51.442;3.580;2024-03-06T04:39:19;20.25;;;16.02;;
45236;SDS011;30973;51.442;3.580;2024-03-06T04:41:47;19.67;;;15.27;;
45236;SDS011;30973;51.442;3.580;2024-03-06T04:44:14;19.27;;;15.30;;
45236;SDS011;30973;51.442;3.580;2024-03-06T04:46:41;18.55;;;15.30;;
45236;SDS011;30973;51.442;3.580;2024-03-06T04:49:09;21.90;;;16.15;;
45236;SDS011;30973;51.442;3.580;2024-03-06T04:51:37;19.48;;;15.98;;
45236;SDS011;30973;51.442;3.580;2024-03-06T04:54:04;19.50;;;16.23;;
45236;SDS011;30973;51.442;3.580;2024-03-06T04:56:32;21.02;;;16.92;;
45236;SDS011;30973;51.442;3.580;2024-03-06T04:59:00;20.40;;;16.17;;
45236;SDS011;30973;51.442;3.580;2024-03-06T05:01:30;19.92;;;15.75;;
45236;SDS011;30973;51.442;3.580;2024-03-06T05:03:58;20.08;;;15.80;;
45236;SDS011;30973;51.442;3.580;2024-03-06T05:06:43;18.88;;;15.25;;
45236;SDS011;30973;51.442;3.580;2024-03-06T05:09:28;17.98;;;15.52;;
45236;SDS011;30973;51.442;3.580;2024-03-06T05:12:13;17.75;;;15.82;;
45236;SDS011;30973;51.442;3.580;2024-03-06T05:14:58;18.92;;;16.10;;
45236;SDS011;30973;51.442;3.580;2024-03-06T05:17:43;17.95;;;15.13;;
45236;SDS011;30973;51.442;3.580;2024-03-06T05:20:28;17.13;;;15.25;;
45236;SDS011;30973;51.442;3.580;2024-03-06T05:23:15;17.90;;;14.65;;
45236;SDS011;30973;51.442;3.580;2024-03-06T05:26:01;16.92;;;15.18;;
45236;SDS011;30973;51.442;3.580;2024-03-06T05:28:46;16.75;;;15.00;;
45236;SDS011;30973;51.442;3.580;2024-03-06T05:34:16;15.90;;;14.00;;
45236;SDS011;30973;51.442;3.580;2024-03-06T05:37:01;15.30;;;13.70;;
45236;SDS011;30973;51.442;3.580;2024-03-06T05:39:49;15.85;;;14.25;;
45236;SDS011;30973;51.442;3.580;2024-03-06T05:42:34;17.50;;;13.93;;
45236;SDS011;30973;51.442;3.580;2024-03-06T05:45:19;16.63;;;13.73;;
45236;SDS011;30973;51.442;3.580;2024-03-06T05:48:04;16.17;;;14.45;;
45236;SDS011;30973;51.442;3.580;2024-03-06T05:50:50;16.90;;;15.10;;
45236;SDS011;30973;51.442;3.580;2024-03-06T05:53:37;15.25;;;13.68;;
45236;SDS011;30973;51.442;3.580;2024-03-06T05:56:24;16.98;;;14.57;;
45236;SDS011;30973;51.442;3.580;2024-03-06T05:59:09;15.45;;;13.35;;
45236;SDS011;30973;51.442;3.580;2024-03-06T06:01:37;16.63;;;14.88;;
45236;SDS011;30973;51.442;3.580;2024-03-06T06:04:05;17.92;;;15.65;;
45236;SDS011;30973;51.442;3.580;2024-03-06T06:06:33;18.20;;;15.32;;
45236;SDS011;30973;51.442;3.580;2024-03-06T06:09:01;17.00;;;15.20;;
45236;SDS011;30973;51.442;3.580;2024-03-06T06:11:32;15.80;;;14.07;;
45236;SDS011;30973;51.442;3.580;2024-03-06T06:14:02;16.25;;;14.07;;
45236;SDS011;30973;51.442;3.580;2024-03-06T06:16:41;17.27;;;14.73;;
45236;SDS011;30973;51.442;3.580;2024-03-06T06:19:09;16.70;;;14.15;;
45236;SDS011;30973;51.442;3.580;2024-03-06T06:21:36;15.75;;;13.77;;
45236;SDS011;30973;51.442;3.580;2024-03-06T06:24:04;16.15;;;14.45;;
45236;SDS011;30973;51.442;3.580;2024-03-06T06:26:32;18.73;;;15.75;;
45236;SDS011;30973;51.442;3.580;2024-03-06T06:28:59;16.65;;;14.27;;
45236;SDS011;30973;51.442;3.580;2024-03-06T06:31:27;18.23;;;16.00;;
45236;SDS011;30973;51.442;3.580;2024-03-06T06:33:55;19.08;;;15.68;;
45236;SDS011;30973;51.442;3.580;2024-03-06T06:36:22;17.38;;;15.27;;
45236;SDS011;30973;51.442;3.580;2024-03-06T06:38:50;18.40;;;15.50;;
45236;SDS011;30973;51.442;3.580;2024-03-06T06:41:17;20.50;;;17.55;;
45236;SDS011;30973;51.442;3.580;2024-03-06T06:43:45;20.50;;;17.45;;
45236;SDS011;30973;51.442;3.580;2024-03-06T06:46:13;21.40;;;17.55;;
45236;SDS011;30973;51.442;3.580;2024-03-06T06:48:40;41.80;;;18.75;;
45236;SDS011;30973;51.442;3.580;2024-03-06T06:51:09;25.70;;;20.27;;
45236;SDS011;30973;51.442;3.580;2024-03-06T06:53:38;39.58;;;21.08;;
45236;SDS011;30973;51.442;3.580;2024-03-06T06:56:08;47.53;;;20.85;;
45236;SDS011;30973;51.442;3.580;2024-03-06T06:58:36;186.32;;;27.65;;
45236;SDS011;30973;51.442;3.580;2024-03-06T07:01:04;60.55;;;19.13;;
45236;SDS011;30973;51.442;3.580;2024-03-06T07:03:31;60.10;;;17.73;;
45236;SDS011;30973;51.442;3.580;2024-03-06T07:05:58;31.33;;;15.25;;
45236;SDS011;30973;51.442;3.580;2024-03-06T07:08:26;94.97;;;21.05;;
45236;SDS011;30973;51.442;3.580;2024-03-06T07:10:53;79.80;;;17.75;;
45236;SDS011;30973;51.442;3.580;2024-03-06T07:13:21;57.28;;;19.38;;
45236;SDS011;30973;51.442;3.580;2024-03-06T07:15:49;67.93;;;16.73;;
45236;SDS011;30973;51.442;3.580;2024-03-06T07:18:16;78.68;;;17.33;;
45236;SDS011;30973;51.442;3.580;2024-03-06T07:20:44;38.72;;;12.77;;
45236;SDS011;30973;51.442;3.580;2024-03-06T07:23:12;59.42;;;13.85;;
45236;SDS011;30973;51.442;3.580;2024-03-06T07:25:39;62.90;;;14.68;;
45236;SDS011;30973;51.442;3.580;2024-03-06T07:28:07;80.65;;;14.80;;
45236;SDS011;30973;51.442;3.580;2024-03-06T07:30:35;58.15;;;13.70;;
45236;SDS011;30973;51.442;3.580;2024-03-06T07:33:03;45.30;;;13.00;;
45236;SDS011;30973;51.442;3.580;2024-03-06T07:35:31;42.42;;;12.75;;
45236;SDS011;30973;51.442;3.580;2024-03-06T07:37:58;32.70;;;11.85;;
45236;SDS011;30973;51.442;3.580;2024-03-06T07:40:26;39.25;;;13.35;;
45236;SDS011;30973;51.442;3.580;2024-03-06T07:42:54;31.70;;;13.75;;
45236;SDS011;30973;51.442;3.580;2024-03-06T07:45:21;37.30;;;12.68;;
45236;SDS011;30973;51.442;3.580;2024-03-06T07:47:48;44.17;;;13.43;;
45236;SDS011;30973;51.442;3.580;2024-03-06T07:50:16;42.30;;;14.98;;
45236;SDS011;30973;51.442;3.580;2024-03-06T07:52:48;51.38;;;15.52;;
45236;SDS011;30973;51.442;3.580;2024-03-06T07:55:15;35.28;;;15.20;;
45236;SDS011;30973;51.442;3.580;2024-03-06T07:57:45;35.90;;;14.63;;
45236;SDS011;30973;51.442;3.580;2024-03-06T08:00:13;41.90;;;14.52;;
45236;SDS011;30973;51.442;3.580;2024-03-06T08:02:46;40.45;;;14.77;;
45236;SDS011;30973;51.442;3.580;2024-03-06T08:05:17;27.13;;;14.48;;
45236;SDS011;30973;51.442;3.580;2024-03-06T08:07:45;23.20;;;13.18;;
45236;SDS011;30973;51.442;3.580;2024-03-06T08:10:12;40.00;;;14.63;;
45236;SDS011;30973;51.442;3.580;2024-03-06T08:12:40;24.13;;;14.52;;
45236;SDS011;30973;51.442;3.580;2024-03-06T08:15:09;27.70;;;14.02;;
45236;SDS011;30973;51.442;3.580;2024-03-06T08:17:41;37.25;;;14.88;;
45236;SDS011;30973;51.442;3.580;2024-03-06T08:20:10;48.95;;;15.15;;
45236;SDS011;30973;51.442;3.580;2024-03-06T08:22:38;31.83;;;14.20;;
45236;SDS011;30973;51.442;3.580;2024-03-06T08:25:09;28.83;;;13.38;;
45236;SDS011;30973;51.442;3.580;2024-03-06T08:27:39;42.58;;;14.25;;
45236;SDS011;30973;51.442;3.580;2024-03-06T08:30:07;49.83;;;14.13;;
45236;SDS011;30973;51.442;3.580;2024-03-06T08:32:35;33.72;;;15.50;;
45236;SDS011;30973;51.442;3.580;2024-03-06T08:35:05;49.90;;;14.63;;
45236;SDS011;30973;51.442;3.580;2024-03-06T08:37:33;44.15;;;14.25;;
45236;SDS011;30973;51.442;3.580;2024-03-06T08:40:01;28.92;;;13.77;;
45236;SDS011;30973;51.442;3.580;2024-03-06T08:42:29;21.48;;;13.15;;
45236;SDS011;30973;51.442;3.580;2024-03-06T08:44:56;44.88;;;16.27;;
45236;SDS011;30973;51.442;3.580;2024-03-06T08:47:24;40.05;;;14.85;;
45236;SDS011;30973;51.442;3.580;2024-03-06T08:49:51;41.70;;;16.67;;
45236;SDS011;30973;51.442;3.580;2024-03-06T08:52:19;52.78;;;17.10;;
45236;SDS011;30973;51.442;3.580;2024-03-06T08:54:47;34.03;;;14.52;;
45236;SDS011;30973;51.442;3.580;2024-03-06T08:57:15;50.55;;;17.17;;
45236;SDS011;30973;51.442;3.580;2024-03-06T08:59:42;49.45;;;15.55;;
45236;SDS011;30973;51.442;3.580;2024-03-06T09:02:17;65.20;;;16.50;;
45236;SDS011;30973;51.442;3.580;2024-03-06T09:04:46;30.77;;;14.73;;
45236;SDS011;30973;51.442;3.580;2024-03-06T09:07:14;111.55;;;19.48;;
45236;SDS011;30973;51.442;3.580;2024-03-06T09:09:44;41.28;;;16.02;;
45236;SDS011;30973;51.442;3.580;2024-03-06T09:12:12;60.85;;;20.33;;
45236;SDS011;30973;51.442;3.580;2024-03-06T09:14:44;45.13;;;15.32;;
45236;SDS011;30973;51.442;3.580;2024-03-06T09:17:12;45.67;;;14.50;;
45236;SDS011;30973;51.442;3.580;2024-03-06T09:19:41;34.35;;;13.63;;
45236;SDS011;30973;51.442;3.580;2024-03-06T09:22:28;52.40;;;14.98;;
45236;SDS011;30973;51.442;3.580;2024-03-06T09:24:56;26.90;;;13.68;;
45236;SDS011;30973;51.442;3.580;2024-03-06T09:27:24;46.10;;;14.18;;
45236;SDS011;30973;51.442;3.580;2024-03-06T09:29:52;25.33;;;12.88;;
45236;SDS011;30973;51.442;3.580;2024-03-06T09:32:19;39.40;;;14.15;;
45236;SDS011;30973;51.442;3.580;2024-03-06T09:34:49;42.33;;;14.25;;
45236;SDS011;30973;51.442;3.580;2024-03-06T09:37:16;35.03;;;14.90;;
45236;SDS011;30973;51.442;3.580;2024-03-06T09:39:44;30.50;;;14.82;;
45236;SDS011;30973;51.442;3.580;2024-03-06T09:42:14;48.60;;;15.15;;
45236;SDS011;30973;51.442;3.580;2024-03-06T09:44:42;36.67;;;14.43;;
45236;SDS011;30973;51.442;3.580;2024-03-06T09:47:12;33.85;;;15.82;;
45236;SDS011;30973;51.442;3.580;2024-03-06T09:49:43;31.15;;;14.23;;
45236;SDS011;30973;51.442;3.580;2024-03-06T09:52:11;33.38;;;14.88;;
45236;SDS011;30973;51.442;3.580;2024-03-06T09:54:38;45.58;;;16.08;;
45236;SDS011;30973;51.442;3.580;2024-03-06T09:57:06;31.55;;;15.43;;
45236;SDS011;30973;51.442;3.580;2024-03-06T09:59:34;38.35;;;15.07;;
45236;SDS011;30973;51.442;3.580;2024-03-06T10:02:01;25.25;;;14.23;;
45236;SDS011;30973;51.442;3.580;2024-03-06T10:04:33;29.50;;;15.25;;
45236;SDS011;30973;51.442;3.580;2024-03-06T10:07:03;36.45;;;16.40;;
45236;SDS011;30973;51.442;3.580;2024-03-06T10:09:32;21.15;;;14.50;;
45236;SDS011;30973;51.442;3.580;2024-03-06T10:12:00;31.27;;;14.75;;
45236;SDS011;30973;51.442;3.580;2024-03-06T10:14:32;22.63;;;13.07;;
45236;SDS011;30973;51.442;3.580;2024-03-06T10:17:00;18.52;;;14.27;;
45236;SDS011;30973;51.442;3.580;2024-03-06T10:19:28;28.88;;;15.90;;
45236;SDS011;30973;51.442;3.580;2024-03-06T10:21:56;23.55;;;16.20;;
45236;SDS011;30973;51.442;3.580;2024-03-06T10:24:25;21.17;;;15.68;;
45236;SDS011;30973;51.442;3.580;2024-03-06T10:26:56;22.02;;;15.15;;
45236;SDS011;30973;51.442;3.580;2024-03-06T10:29:26;20.38;;;14.95;;
45236;SDS011;30973;51.442;3.580;2024-03-06T10:31:55;20.17;;;15.73;;
45236;SDS011;30973;51.442;3.580;2024-03-06T10:34:29;22.52;;;15.07;;
45236;SDS011;30973;51.442;3.580;2024-03-06T10:36:58;20.95;;;14.75;;
45236;SDS011;30973;51.442;3.580;2024-03-06T10:39:26;20.42;;;14.48;;
45236;SDS011;30973;51.442;3.580;2024-03-06T10:41:54;22.15;;;15.32;;
45236;SDS011;30973;51.442;3.580;2024-03-06T10:44:25;20.48;;;15.07;;
45236;SDS011;30973;51.442;3.580;2024-03-06T10:46:59;19.67;;;15.43;;
45236;SDS011;30973;51.442;3.580;2024-03-06T10:49:27;21.27;;;15.43;;
45236;SDS011;30973;51.442;3.580;2024-03-06T10:52:03;23.80;;;15.27;;
45236;SDS011;30973;51.442;3.580;2024-03-06T10:54:34;20.42;;;15.15;;
45236;SDS011;30973;51.442;3.580;2024-03-06T10:57:05;20.58;;;14.98;;
45236;SDS011;30973;51.442;3.580;2024-03-06T10:59:32;21.17;;;15.15;;
45236;SDS011;30973;51.442;3.580;2024-03-06T11:02:02;21.30;;;15.30;;
45236;SDS011;30973;51.442;3.580;2024-03-06T11:04:30;19.85;;;14.52;;
45236;SDS011;30973;51.442;3.580;2024-03-06T11:07:01;19.75;;;14.18;;
45236;SDS011;30973;51.442;3.580;2024-03-06T11:09:38;26.50;;;17.92;;
45236;SDS011;30973;51.442;3.580;2024-03-06T11:12:06;35.05;;;25.38;;
45236;SDS011;30973;51.442;3.580;2024-03-06T11:14:38;21.75;;;14.98;;
45236;SDS011;30973;51.442;3.580;2024-03-06T11:17:08;21.55;;;14.88;;
45236;SDS011;30973;51.442;3.580;2024-03-06T11:25:12;20.90;;;15.55;;
45236;SDS011;30973;51.442;3.580;2024-03-06T11:28:03;22.90;;;15.25;;
45236;SDS011;30973;51.442;3.580;2024-03-06T11:30:30;21.48;;;15.40;;
45236;SDS011;30973;51.442;3.580;2024-03-06T11:32:58;22.20;;;15.77;;
45236;SDS011;30973;51.442;3.580;2024-03-06T11:35:29;21.45;;;14.93;;
45236;SDS011;30973;51.442;3.580;2024-03-06T11:37:58;20.27;;;14.43;;
45236;SDS011;30973;51.442;3.580;2024-03-06T11:40:26;20.20;;;15.18;;
45236;SDS011;30973;51.442;3.580;2024-03-06T11:42:54;23.17;;;15.95;;
45236;SDS011;30973;51.442;3.580;2024-03-06T11:45:21;23.65;;;16.60;;
45236;SDS011;30973;51.442;3.580;2024-03-06T11:47:58;22.40;;;15.65;;
45236;SDS011;30973;51.442;3.580;2024-03-06T11:50:27;22.75;;;16.42;;
45236;SDS011;30973;51.442;3.580;2024-03-06T11:52:56;23.42;;;15.02;;
45236;SDS011;30973;51.442;3.580;2024-03-06T11:55:24;24.20;;;16.55;;
45236;SDS011;30973;51.442;3.580;2024-03-06T11:57:52;23.73;;;16.15;;
45236;SDS011;30973;51.442;3.580;2024-03-06T12:00:23;21.65;;;15.30;;
45236;SDS011;30973;51.442;3.580;2024-03-06T12:02:51;22.48;;;16.50;;
45236;SDS011;30973;51.442;3.580;2024-03-06T12:05:25;25.77;;;16.77;;
45236;SDS011;30973;51.442;3.580;2024-03-06T12:07:54;24.60;;;16.95;;
45236;SDS011;30973;51.442;3.580;2024-03-06T12:10:25;23.35;;;15.80;;
45236;SDS011;30973;51.442;3.580;2024-03-06T12:12:53;23.48;;;15.32;;
45236;SDS011;30973;51.442;3.580;2024-03-06T12:15:20;23.25;;;15.10;;
45236;SDS011;30973;51.442;3.580;2024-03-06T12:17:48;21.42;;;15.63;;
45236;SDS011;30973;51.442;3.580;2024-03-06T12:20:17;22.90;;;15.48;;
45236;SDS011;30973;51.442;3.580;2024-03-06T12:22:48;21.67;;;15.57;;
45236;SDS011;30973;51.442;3.580;2024-03-06T12:25:24;21.98;;;16.08;;
45236;SDS011;30973;51.442;3.580;2024-03-06T12:28:05;20.60;;;15.10;;
45236;SDS011;30973;51.442;3.580;2024-03-06T12:30:40;21.33;;;15.13;;
45236;SDS011;30973;51.442;3.580;2024-03-06T12:33:08;22.13;;;15.57;;
45236;SDS011;30973;51.442;3.580;2024-03-06T12:35:38;38.03;;;28.83;;
45236;SDS011;30973;51.442;3.580;2024-03-06T12:38:15;21.65;;;15.55;;
45236;SDS011;30973;51.442;3.580;2024-03-06T12:40:43;21.90;;;15.15;;
45236;SDS011;30973;51.442;3.580;2024-03-06T12:43:10;20.38;;;15.13;;
45236;SDS011;30973;51.442;3.580;2024-03-06T12:45:37;17.08;;;12.88;;
45236;SDS011;30973;51.442;3.580;2024-03-06T12:48:05;16.65;;;12.60;;
45236;SDS011;30973;51.442;3.580;2024-03-06T12:50:33;18.85;;;13.88;;
45236;SDS011;30973;51.442;3.580;2024-03-06T12:53:04;19.90;;;13.75;;
45236;SDS011;30973;51.442;3.580;2024-03-06T12:55:32;17.73;;;13.88;;
45236;SDS011;30973;51.442;3.580;2024-03-06T12:57:59;17.75;;;13.30;;
45236;SDS011;30973;51.442;3.580;2024-03-06T13:00:26;18.02;;;13.10;;
45236;SDS011;30973;51.442;3.580;2024-03-06T13:02:54;16.95;;;12.73;;
45236;SDS011;30973;51.442;3.580;2024-03-06T13:05:31;18.70;;;13.20;;
45236;SDS011;30973;51.442;3.580;2024-03-06T13:08:11;17.88;;;13.70;;
45236;SDS011;30973;51.442;3.580;2024-03-06T13:10:41;18.40;;;12.98;;
45236;SDS011;30973;51.442;3.580;2024-03-06T13:13:08;20.63;;;14.07;;
45236;SDS011;30973;51.442;3.580;2024-03-06T13:15:36;17.50;;;13.35;;
45236;SDS011;30973;51.442;3.580;2024-03-06T13:18:03;19.15;;;12.95;;
45236;SDS011;30973;51.442;3.580;2024-03-06T13:20:32;17.67;;;12.73;;
45236;SDS011;30973;51.442;3.580;2024-03-06T13:23:01;18.02;;;13.55;;
45236;SDS011;30973;51.442;3.580;2024-03-06T13:25:30;18.55;;;13.38;;
45236;SDS011;30973;51.442;3.580;2024-03-06T13:27:58;15.80;;;12.85;;
45236;SDS011;30973;51.442;3.580;2024-03-06T13:30:25;18.10;;;13.57;;
45236;SDS011;30973;51.442;3.580;2024-03-06T13:32:52;17.85;;;13.45;;
45236;SDS011;30973;51.442;3.580;2024-03-06T13:35:21;18.48;;;12.98;;
45236;SDS011;30973;51.442;3.580;2024-03-06T13:37:48;17.83;;;12.90;;
45236;SDS011;30973;51.442;3.580;2024-03-06T13:40:16;17.10;;;13.27;;
45236;SDS011;30973;51.442;3.580;2024-03-06T13:42:43;18.00;;;12.90;;
45236;SDS011;30973;51.442;3.580;2024-03-06T13:45:11;16.90;;;13.07;;
45236;SDS011;30973;51.442;3.580;2024-03-06T13:47:38;16.67;;;12.93;;
45236;SDS011;30973;51.442;3.580;2024-03-06T13:50:07;17.90;;;13.98;;
45236;SDS011;30973;51.442;3.580;2024-03-06T13:52:35;16.98;;;12.90;;
45236;SDS011;30973;51.442;3.580;2024-03-06T13:55:05;18.90;;;12.93;;
45236;SDS011;30973;51.442;3.580;2024-03-06T13:57:33;16.55;;;12.98;;
45236;SDS011;30973;51.442;3.580;2024-03-06T14:00:07;15.38;;;12.30;;
45236;SDS011;30973;51.442;3.580;2024-03-06T14:02:45;15.40;;;12.55;;
45236;SDS011;30973;51.442;3.580;2024-03-06T14:05:13;16.98;;;12.85;;
45236;SDS011;30973;51.442;3.580;2024-03-06T14:07:43;16.80;;;12.48;;
45236;SDS011;30973;51.442;3.580;2024-03-06T14:10:11;17.70;;;13.05;;
45236;SDS011;30973;51.442;3.580;2024-03-06T14:12:40;16.42;;;12.25;;
45236;SDS011;30973;51.442;3.580;2024-03-06T14:15:08;18.77;;;12.98;;
45236;SDS011;30973;51.442;3.580;2024-03-06T14:17:39;17.58;;;13.02;;
45236;SDS011;30973;51.442;3.580;2024-03-06T14:20:07;18.35;;;13.43;;
45236;SDS011;30973;51.442;3.580;2024-03-06T14:22:35;16.25;;;12.75;;
45236;SDS011;30973;51.442;3.580;2024-03-06T14:25:03;16.58;;;12.30;;
45236;SDS011;30973;51.442;3.580;2024-03-06T14:27:31;14.77;;;12.38;;
45236;SDS011;30973;51.442;3.580;2024-03-06T14:29:58;16.23;;;12.52;;
45236;SDS011;30973;51.442;3.580;2024-03-06T14:32:26;15.55;;;13.00;;
45236;SDS011;30973;51.442;3.580;2024-03-06T14:35:02;17.85;;;12.18;;
45236;SDS011;30973;51.442;3.580;2024-03-06T14:37:30;16.00;;;12.18;;
45236;SDS011;30973;51.442;3.580;2024-03-06T14:39:57;17.23;;;12.57;;
45236;SDS011;30973;51.442;3.580;2024-03-06T14:42:29;15.15;;;11.57;;
45236;SDS011;30973;51.442;3.580;2024-03-06T14:44:57;14.40;;;11.40;;
45236;SDS011;30973;51.442;3.580;2024-03-06T14:47:25;16.38;;;12.35;;